createdAt,value
2019-04-27T00:00:15.450Z,0.00
2019-04-27T00:01:13.783Z,0.00
2019-04-27T00:02:13.468Z,0.00
2019-04-27T00:03:13.498Z,0.00
2019-04-27T00:04:16.189Z,0.00
2019-04-27T00:05:14.374Z,0.00
2019-04-27T00:06:13.558Z,0.00
2019-04-27T00:07:13.137Z,0.00
2019-04-27T00:08:13.935Z,0.00
2019-04-27T00:09:14.479Z,0.00
2019-04-27T00:10:13.686Z,0.00
2019-04-27T00:11:13.690Z,0.00
2019-04-27T00:12:16.435Z,0.00
2019-04-27T00:13:15.200Z,0.00
2019-04-27T00:14:14.920Z,0.00
2019-04-27T00:15:13.454Z,0.00
2019-04-27T00:16:13.465Z,0.00
2019-04-27T00:17:13.426Z,0.00
2019-04-27T00:18:13.997Z,0.00
2019-04-27T00:19:13.427Z,0.00
2019-04-27T00:20:13.127Z,0.00
2019-04-27T00:21:13.519Z,0.00
2019-04-27T00:22:14.624Z,0.00
2019-04-27T00:23:13.239Z,0.00
2019-04-27T00:24:13.511Z,0.00
2019-04-27T00:25:13.133Z,0.00
2019-04-27T00:26:13.439Z,0.00
2019-04-27T00:27:13.372Z,0.00
2019-04-27T00:28:13.416Z,0.00
2019-04-27T00:29:13.682Z,0.00
2019-04-27T00:30:13.841Z,0.00
2019-04-27T00:31:13.196Z,0.00
2019-04-27T00:32:13.366Z,0.00
2019-04-27T00:33:13.674Z,0.00
2019-04-27T00:34:13.336Z,0.00
2019-04-27T00:35:13.809Z,0.00
2019-04-27T00:36:13.364Z,0.00
2019-04-27T00:37:13.594Z,0.00
2019-04-27T00:38:13.135Z,0.00
2019-04-27T00:39:13.855Z,0.00
2019-04-27T00:40:14.647Z,0.00
2019-04-27T00:41:14.057Z,0.00
2019-04-27T00:42:13.475Z,0.00
2019-04-27T00:43:13.957Z,0.00
2019-04-27T00:44:13.503Z,0.00
2019-04-27T00:45:13.491Z,0.00
2019-04-27T00:46:13.828Z,0.00
2019-04-27T00:47:13.816Z,0.00
2019-04-27T00:48:13.509Z,0.00
2019-04-27T00:49:13.747Z,0.00
2019-04-27T00:50:13.506Z,0.00
2019-04-27T00:51:12.933Z,0.00
2019-04-27T00:52:13.911Z,0.00
2019-04-27T00:53:13.506Z,0.00
2019-04-27T00:54:13.641Z,0.00
2019-04-27T00:55:13.384Z,0.00
2019-04-27T00:56:13.876Z,0.00
2019-04-27T00:57:13.055Z,0.00
2019-04-27T00:58:13.279Z,0.00
2019-04-27T00:59:13.738Z,0.00
2019-04-27T01:00:13.439Z,0.00
2019-04-27T01:01:12.683Z,0.00
2019-04-27T01:02:13.523Z,0.00
2019-04-27T01:03:13.990Z,0.00
2019-04-27T01:04:13.645Z,0.00
2019-04-27T01:05:13.207Z,0.00
2019-04-27T01:06:13.098Z,0.00
2019-04-27T01:07:14.303Z,0.00
2019-04-27T01:08:13.786Z,0.00
2019-04-27T01:09:13.418Z,0.00
2019-04-27T01:10:13.466Z,0.00
2019-04-27T01:11:13.979Z,0.00
2019-04-27T01:12:13.601Z,0.00
2019-04-27T01:13:13.245Z,0.00
2019-04-27T01:14:12.836Z,0.00
2019-04-27T01:15:13.729Z,0.00
2019-04-27T01:16:15.646Z,0.00
2019-04-27T01:17:13.146Z,0.00
2019-04-27T01:18:15.376Z,0.00
2019-04-27T01:19:13.140Z,0.00
2019-04-27T01:20:12.118Z,0.00
2019-04-27T01:21:12.983Z,0.00
2019-04-27T01:22:12.134Z,0.00
2019-04-27T01:23:12.102Z,0.00
2019-04-27T01:24:12.113Z,0.00
2019-04-27T01:25:12.106Z,0.00
2019-04-27T01:26:12.981Z,0.00
2019-04-27T01:27:12.094Z,0.00
2019-04-27T01:28:12.092Z,0.00
2019-04-27T01:29:12.070Z,0.00
2019-04-27T01:30:12.055Z,0.00
2019-04-27T01:31:12.059Z,0.00
2019-04-27T01:32:12.057Z,0.00
2019-04-27T01:33:12.036Z,0.00
2019-04-27T01:34:12.074Z,0.00
2019-04-27T01:35:12.025Z,0.00
2019-04-27T01:36:12.013Z,0.00
2019-04-27T01:37:12.028Z,0.00
2019-04-27T01:38:12.059Z,0.00
2019-04-27T01:39:12.028Z,0.00
2019-04-27T01:40:11.978Z,0.00
2019-04-27T01:41:11.998Z,0.00
2019-04-27T01:42:11.986Z,0.00
2019-04-27T01:43:12.013Z,0.00
2019-04-27T01:44:12.980Z,0.00
2019-04-27T01:45:11.995Z,0.00
2019-04-27T01:46:11.974Z,0.00
2019-04-27T01:47:11.960Z,0.00
2019-04-27T01:48:23.104Z,0.00
2019-04-27T01:49:13.998Z,0.00
2019-04-27T01:50:11.956Z,0.00
2019-04-27T01:51:12.484Z,0.00
2019-04-27T01:52:11.970Z,0.00
2019-04-27T01:53:11.953Z,0.00
2019-04-27T01:54:11.960Z,0.00
2019-04-27T01:55:11.925Z,0.00
2019-04-27T01:56:11.969Z,0.00
2019-04-27T01:57:11.939Z,0.00
2019-04-27T01:58:11.914Z,0.00
2019-04-27T01:59:11.944Z,0.00
2019-04-27T02:00:11.896Z,0.00
2019-04-27T02:01:11.896Z,0.00
2019-04-27T02:02:11.903Z,0.00
2019-04-27T02:03:11.931Z,0.00
2019-04-27T02:04:11.888Z,0.00
2019-04-27T02:05:11.886Z,0.00
2019-04-27T02:06:11.863Z,0.00
2019-04-27T02:07:11.854Z,0.00
2019-04-27T02:08:11.850Z,0.00
2019-04-27T02:09:11.839Z,0.00
2019-04-27T02:10:11.853Z,0.00
2019-04-27T02:11:11.897Z,0.00
2019-04-27T02:12:11.879Z,0.00
2019-04-27T02:13:11.812Z,0.00
2019-04-27T02:14:11.798Z,0.00
2019-04-27T02:15:11.820Z,0.00
2019-04-27T02:16:11.782Z,0.00
2019-04-27T02:17:11.806Z,0.00
2019-04-27T02:18:12.769Z,0.00
2019-04-27T02:19:11.754Z,0.00
2019-04-27T02:20:11.773Z,0.00
2019-04-27T02:21:11.776Z,0.00
2019-04-27T02:22:12.483Z,0.00
2019-04-27T02:23:11.778Z,0.00
2019-04-27T02:24:11.755Z,0.00
2019-04-27T02:25:11.770Z,0.00
2019-04-27T02:26:11.747Z,0.00
2019-04-27T02:27:11.758Z,0.00
2019-04-27T02:28:11.737Z,0.00
2019-04-27T02:29:11.731Z,0.00
2019-04-27T02:30:11.923Z,0.00
2019-04-27T02:31:11.694Z,0.00
2019-04-27T02:32:11.694Z,0.00
2019-04-27T02:33:12.865Z,0.00
2019-04-27T02:34:12.662Z,0.00
2019-04-27T02:35:11.678Z,0.00
2019-04-27T02:36:14.771Z,0.00
2019-04-27T02:37:12.675Z,0.00
2019-04-27T02:38:11.652Z,0.00
2019-04-27T02:39:11.639Z,0.00
2019-04-27T02:40:11.670Z,0.00
2019-04-27T02:41:11.622Z,0.00
2019-04-27T02:42:11.600Z,0.00
2019-04-27T02:43:11.614Z,0.00
2019-04-27T02:44:11.612Z,0.00
2019-04-27T02:45:11.615Z,0.00
2019-04-27T02:46:11.601Z,0.00
2019-04-27T02:47:11.596Z,0.00
2019-04-27T02:48:11.588Z,0.00
2019-04-27T02:49:11.586Z,0.00
2019-04-27T02:50:11.561Z,0.00
2019-04-27T02:51:11.568Z,0.00
2019-04-27T02:52:11.543Z,0.00
2019-04-27T02:53:11.538Z,0.00
2019-04-27T02:54:12.616Z,0.00
2019-04-27T02:55:12.516Z,0.00
2019-04-27T02:56:11.551Z,0.00
2019-04-27T02:57:11.532Z,0.00
2019-04-27T02:58:12.954Z,0.00
2019-04-27T02:59:12.525Z,0.00
2019-04-27T03:00:11.497Z,0.00
2019-04-27T03:01:11.490Z,0.00
2019-04-27T03:02:11.465Z,0.00
2019-04-27T03:03:11.472Z,0.00
2019-04-27T03:04:11.476Z,0.00
2019-04-27T03:05:13.160Z,0.00
2019-04-27T03:06:12.484Z,0.00
2019-04-27T03:07:11.714Z,0.00
2019-04-27T03:08:11.454Z,0.00
2019-04-27T03:09:11.421Z,0.00
2019-04-27T03:10:11.416Z,0.00
2019-04-27T03:11:11.419Z,0.00
2019-04-27T03:12:11.414Z,0.00
2019-04-27T03:13:11.396Z,0.00
2019-04-27T03:14:27.972Z,0.00
2019-04-27T03:15:13.389Z,0.00
2019-04-27T03:16:13.416Z,0.00
2019-04-27T03:17:11.979Z,0.00
2019-04-27T03:18:11.362Z,0.00
2019-04-27T03:19:17.447Z,0.00
2019-04-27T03:20:13.373Z,0.00
2019-04-27T03:21:13.186Z,0.00
2019-04-27T03:22:12.348Z,0.00
2019-04-27T03:23:11.352Z,0.00
2019-04-27T03:24:11.330Z,0.00
2019-04-27T03:25:14.905Z,0.00
2019-04-27T03:26:12.343Z,0.00
2019-04-27T03:27:11.312Z,0.00
2019-04-27T03:28:11.305Z,0.00
2019-04-27T03:29:11.303Z,0.00
2019-04-27T03:30:12.503Z,0.00
2019-04-27T03:31:13.762Z,0.00
2019-04-27T03:32:13.163Z,0.00
2019-04-27T03:33:12.553Z,0.00
2019-04-27T03:34:16.457Z,0.00
2019-04-27T03:35:13.367Z,4.00
2019-04-27T03:36:13.226Z,4.00
2019-04-27T03:37:12.254Z,4.00
2019-04-27T03:38:12.503Z,0.00
2019-04-27T03:39:12.229Z,4.00
2019-04-27T03:40:11.279Z,4.00
2019-04-27T03:41:11.225Z,4.00
2019-04-27T03:42:11.270Z,4.00
2019-04-27T03:43:11.745Z,8.00
2019-04-27T03:44:12.980Z,8.00
2019-04-27T03:45:12.019Z,8.00
2019-04-27T03:46:11.230Z,8.00
2019-04-27T03:47:12.713Z,12.00
2019-04-27T03:48:12.212Z,12.00
2019-04-27T03:49:20.349Z,16.00
2019-04-27T03:50:13.941Z,16.00
2019-04-27T03:51:12.173Z,16.00
2019-04-27T03:52:11.529Z,20.00
2019-04-27T03:53:11.139Z,24.00
2019-04-27T03:54:11.132Z,24.00
2019-04-27T03:55:11.125Z,32.00
2019-04-27T03:56:11.107Z,32.00
2019-04-27T03:57:15.019Z,40.00
2019-04-27T03:58:12.143Z,40.00
2019-04-27T03:59:12.103Z,44.00
2019-04-27T04:00:11.076Z,56.00
2019-04-27T04:01:11.097Z,64.00
2019-04-27T04:02:11.935Z,68.00
2019-04-27T04:03:11.081Z,84.00
2019-04-27T04:04:11.148Z,100.00
2019-04-27T04:05:11.066Z,116.00
2019-04-27T04:06:11.041Z,144.00
2019-04-27T04:07:11.158Z,160.00
2019-04-27T04:08:12.032Z,184.00
2019-04-27T04:09:11.025Z,192.00
2019-04-27T04:10:11.061Z,220.00
2019-04-27T04:11:11.008Z,256.00
2019-04-27T04:12:11.037Z,268.00
2019-04-27T04:13:11.003Z,288.00
2019-04-27T04:14:10.985Z,324.00
2019-04-27T04:15:10.999Z,356.00
2019-04-27T04:16:11.066Z,380.00
2019-04-27T04:17:12.722Z,392.00
2019-04-27T04:18:11.947Z,404.00
2019-04-27T04:19:10.993Z,440.00
2019-04-27T04:20:10.980Z,460.00
2019-04-27T04:21:10.980Z,492.00
2019-04-27T04:22:10.974Z,508.00
2019-04-27T04:23:11.491Z,568.00
2019-04-27T04:24:12.112Z,596.00
2019-04-27T04:25:11.959Z,608.00
2019-04-27T04:26:10.961Z,640.00
2019-04-27T04:27:10.984Z,668.00
2019-04-27T04:28:10.969Z,700.00
2019-04-27T04:29:10.939Z,720.00
2019-04-27T04:30:12.402Z,728.00
2019-04-27T04:31:13.858Z,728.00
2019-04-27T04:32:11.937Z,748.00
2019-04-27T04:33:10.903Z,828.00
2019-04-27T04:34:12.042Z,936.00
2019-04-27T04:35:11.907Z,1028.00
2019-04-27T04:36:11.918Z,1032.00
2019-04-27T04:37:10.930Z,1080.00
2019-04-27T04:38:10.898Z,1224.00
2019-04-27T04:39:12.537Z,1332.00
2019-04-27T04:40:11.895Z,1372.00
2019-04-27T04:41:10.894Z,1136.00
2019-04-27T04:42:10.875Z,1056.00
2019-04-27T04:43:11.136Z,1144.00
2019-04-27T04:44:12.480Z,1224.00
2019-04-27T04:45:11.863Z,1260.00
2019-04-27T04:46:13.255Z,1212.00
2019-04-27T04:47:11.861Z,1268.00
2019-04-27T04:48:10.834Z,1368.00
2019-04-27T04:49:10.826Z,1488.00
2019-04-27T04:50:14.927Z,1928.00
2019-04-27T04:51:11.804Z,2200.00
2019-04-27T04:52:10.798Z,2260.00
2019-04-27T04:53:12.392Z,1932.00
2019-04-27T04:54:11.787Z,2112.00
2019-04-27T04:55:10.792Z,2084.00
2019-04-27T04:56:10.866Z,2092.00
2019-04-27T04:57:10.770Z,2384.00
2019-04-27T04:58:10.781Z,2396.00
2019-04-27T04:59:10.776Z,2328.00
2019-04-27T05:00:10.750Z,2340.00
2019-04-27T05:01:10.742Z,2532.00
2019-04-27T05:02:10.937Z,2648.00
2019-04-27T05:03:10.740Z,3212.00
2019-04-27T05:04:10.714Z,4176.00
2019-04-27T05:05:10.712Z,4460.00
2019-04-27T05:06:10.721Z,4488.00
2019-04-27T05:07:10.702Z,4276.00
2019-04-27T05:08:10.751Z,4292.00
2019-04-27T05:09:10.718Z,3824.00
2019-04-27T05:10:10.731Z,4892.00
2019-04-27T05:11:10.700Z,4208.00
2019-04-27T05:12:10.717Z,3836.00
2019-04-27T05:13:10.711Z,2856.00
2019-04-27T05:14:10.691Z,3244.00
2019-04-27T05:15:10.676Z,6176.00
2019-04-27T05:16:10.678Z,4852.00
2019-04-27T05:17:10.706Z,3912.00
2019-04-27T05:18:10.691Z,6148.00
2019-04-27T05:19:11.326Z,5400.00
2019-04-27T05:20:22.314Z,4956.00
2019-04-27T05:21:12.698Z,7668.00
2019-04-27T05:22:10.680Z,8672.00
2019-04-27T05:23:10.683Z,10568.00
2019-04-27T05:24:10.654Z,8216.00
2019-04-27T05:25:11.017Z,7916.00
2019-04-27T05:26:11.646Z,6668.00
2019-04-27T05:27:10.638Z,8208.00
2019-04-27T05:28:10.631Z,7856.00
2019-04-27T05:29:10.685Z,5484.00
2019-04-27T05:30:10.619Z,4920.00
2019-04-27T05:31:10.607Z,5432.00
2019-04-27T05:32:10.586Z,5752.00
2019-04-27T05:33:10.602Z,5048.00
2019-04-27T05:34:10.598Z,4932.00
2019-04-27T05:35:10.586Z,5064.00
2019-04-27T05:36:10.559Z,7080.00
2019-04-27T05:37:10.589Z,7092.00
2019-04-27T05:38:13.240Z,8556.00
2019-04-27T05:39:13.242Z,10856.00
2019-04-27T05:40:11.566Z,7568.00
2019-04-27T05:41:10.570Z,6828.00
2019-04-27T05:42:16.770Z,6892.00
2019-04-27T05:43:12.536Z,5772.00
2019-04-27T05:44:12.712Z,5504.00
2019-04-27T05:45:15.233Z,5952.00
2019-04-27T05:46:12.413Z,5652.00
2019-04-27T05:47:13.164Z,5112.00
2019-04-27T05:48:11.523Z,4796.00
2019-04-27T05:49:10.547Z,4580.00
2019-04-27T05:50:13.342Z,5372.00
2019-04-27T05:51:11.524Z,5796.00
2019-04-27T05:52:14.614Z,5128.00
2019-04-27T05:53:42.462Z,4936.00
2019-04-27T05:54:10.473Z,4900.00
2019-04-27T05:55:10.624Z,4736.00
2019-04-27T05:56:11.458Z,5236.00
2019-04-27T05:57:10.453Z,5604.00
2019-04-27T05:58:10.448Z,5264.00
2019-04-27T05:59:10.444Z,5228.00
2019-04-27T06:00:10.432Z,5280.00
2019-04-27T06:01:11.267Z,5356.00
2019-04-27T06:02:11.418Z,4644.00
2019-04-27T06:03:10.424Z,6372.00
2019-04-27T06:04:10.424Z,7912.00
2019-04-27T06:05:10.410Z,6620.00
2019-04-27T06:06:10.411Z,7028.00
2019-04-27T06:07:10.396Z,6296.00
2019-04-27T06:08:10.387Z,8156.00
2019-04-27T06:09:10.390Z,9332.00
2019-04-27T06:10:10.377Z,7160.00
2019-04-27T06:11:10.362Z,5992.00
2019-04-27T06:12:10.359Z,5968.00
2019-04-27T06:13:10.690Z,7472.00
2019-04-27T06:14:11.354Z,4908.00
2019-04-27T06:15:10.338Z,5072.00
2019-04-27T06:16:10.327Z,6408.00
2019-04-27T06:17:10.323Z,7144.00
2019-04-27T06:18:10.314Z,4796.00
2019-04-27T06:19:10.342Z,6340.00
2019-04-27T06:20:10.321Z,7168.00
2019-04-27T06:21:10.306Z,7072.00
2019-04-27T06:22:10.297Z,9156.00
2019-04-27T06:23:10.291Z,10860.00
2019-04-27T06:24:10.470Z,12536.00
2019-04-27T06:25:11.786Z,8996.00
2019-04-27T06:26:11.757Z,9080.00
2019-04-27T06:27:11.278Z,8972.00
2019-04-27T06:28:10.288Z,7140.00
2019-04-27T06:29:10.293Z,8652.00
2019-04-27T06:30:10.269Z,6276.00
2019-04-27T06:31:10.237Z,6616.00
2019-04-27T06:32:10.910Z,9236.00
2019-04-27T06:33:11.225Z,6304.00
2019-04-27T06:34:10.238Z,9696.00
2019-04-27T06:35:12.369Z,7728.00
2019-04-27T06:36:11.207Z,9764.00
2019-04-27T06:37:10.206Z,8880.00
2019-04-27T06:38:11.594Z,18592.00
2019-04-27T06:39:10.222Z,14412.00
2019-04-27T06:40:10.212Z,11540.00
2019-04-27T06:41:10.277Z,11516.00
2019-04-27T06:42:17.930Z,12764.00
2019-04-27T06:43:12.180Z,10684.00
2019-04-27T06:44:11.442Z,8964.00
2019-04-27T06:45:11.179Z,7224.00
2019-04-27T06:46:10.154Z,6712.00
2019-04-27T06:47:10.144Z,28800.00
2019-04-27T06:48:10.136Z,17920.00
2019-04-27T06:49:11.093Z,12480.00
2019-04-27T06:50:11.133Z,41184.00
2019-04-27T06:51:10.141Z,14320.00
2019-04-27T06:52:10.114Z,36000.00
2019-04-27T06:53:10.113Z,15436.00
2019-04-27T06:54:10.098Z,38336.00
2019-04-27T06:55:10.109Z,26336.00
2019-04-27T06:56:10.088Z,13668.00
2019-04-27T06:57:10.091Z,10616.00
2019-04-27T06:58:10.071Z,29312.00
2019-04-27T06:59:10.071Z,28256.00
2019-04-27T07:00:10.064Z,29024.00
2019-04-27T07:01:11.076Z,31808.00
2019-04-27T07:02:11.042Z,14204.00
2019-04-27T07:03:10.624Z,9044.00
2019-04-27T07:04:11.101Z,31200.00
2019-04-27T07:05:10.030Z,32576.00
2019-04-27T07:06:09.999Z,30080.00
2019-04-27T07:07:10.997Z,22272.00
2019-04-27T07:08:09.995Z,29472.00
2019-04-27T07:09:09.984Z,35072.00
2019-04-27T07:10:09.990Z,36288.00
2019-04-27T07:11:11.575Z,35392.00
2019-04-27T07:12:10.957Z,12404.00
2019-04-27T07:13:09.954Z,32416.00
2019-04-27T07:14:11.599Z,33056.00
2019-04-27T07:15:09.959Z,32896.00
2019-04-27T07:16:09.929Z,27232.00
2019-04-27T07:17:09.922Z,35680.00
2019-04-27T07:18:09.931Z,10720.00
2019-04-27T07:19:09.909Z,36320.00
2019-04-27T07:20:09.910Z,11496.00
2019-04-27T07:21:16.896Z,45696.00
2019-04-27T07:22:11.880Z,43296.00
2019-04-27T07:23:10.881Z,31424.00
2019-04-27T07:24:09.925Z,24384.00
2019-04-27T07:25:09.876Z,24672.00
2019-04-27T07:26:09.859Z,32512.00
2019-04-27T07:27:09.848Z,25024.00
2019-04-27T07:28:09.867Z,29696.00
2019-04-27T07:29:09.909Z,29088.00
2019-04-27T07:30:11.774Z,24224.00
2019-04-27T07:31:10.836Z,20352.00
2019-04-27T07:32:09.827Z,10644.00
2019-04-27T07:33:10.511Z,22080.00
2019-04-27T07:34:09.817Z,21312.00
2019-04-27T07:35:09.981Z,21664.00
2019-04-27T07:36:09.823Z,19840.00
2019-04-27T07:37:11.130Z,21408.00
2019-04-27T07:38:10.016Z,21600.00
2019-04-27T07:39:11.573Z,14184.00
2019-04-27T07:40:10.800Z,21952.00
2019-04-27T07:41:09.780Z,22240.00
2019-04-27T07:42:09.784Z,20832.00
2019-04-27T07:43:09.766Z,21696.00
2019-04-27T07:44:10.192Z,20800.00
2019-04-27T07:45:11.288Z,21088.00
2019-04-27T07:46:10.766Z,20320.00
2019-04-27T07:47:09.824Z,20608.00
2019-04-27T07:48:10.748Z,20736.00
2019-04-27T07:49:09.744Z,20160.00
2019-04-27T07:50:09.787Z,18752.00
2019-04-27T07:51:09.730Z,18176.00
2019-04-27T07:52:09.725Z,17568.00
2019-04-27T07:53:09.747Z,15392.00
2019-04-27T07:54:09.740Z,10176.00
2019-04-27T07:55:09.913Z,10488.00
2019-04-27T07:56:10.841Z,17568.00
2019-04-27T07:57:09.936Z,22432.00
2019-04-27T07:58:10.724Z,16512.00
2019-04-27T07:59:09.704Z,20736.00
2019-04-27T08:00:09.720Z,19520.00
2019-04-27T08:01:09.687Z,10624.00
2019-04-27T08:02:11.011Z,10272.00
2019-04-27T08:03:10.672Z,19200.00
2019-04-27T08:04:09.664Z,19328.00
2019-04-27T08:05:09.656Z,21952.00
2019-04-27T08:06:10.897Z,17120.00
2019-04-27T08:07:10.645Z,11872.00
2019-04-27T08:08:09.637Z,18880.00
2019-04-27T08:09:09.623Z,11324.00
2019-04-27T08:10:09.888Z,20736.00
2019-04-27T08:11:11.389Z,10472.00
2019-04-27T08:12:11.015Z,9392.00
2019-04-27T08:13:10.593Z,9124.00
2019-04-27T08:14:09.592Z,9516.00
2019-04-27T08:15:09.581Z,11544.00
2019-04-27T08:16:09.584Z,12380.00
2019-04-27T08:17:09.826Z,11828.00
2019-04-27T08:18:10.556Z,13960.00
2019-04-27T08:19:09.992Z,11124.00
2019-04-27T08:20:10.549Z,10476.00
2019-04-27T08:21:09.545Z,17792.00
2019-04-27T08:22:09.777Z,14816.00
2019-04-27T08:23:10.519Z,14624.00
2019-04-27T08:24:11.088Z,18432.00
2019-04-27T08:25:09.647Z,18752.00
2019-04-27T08:26:09.509Z,16992.00
2019-04-27T08:27:09.494Z,17568.00
2019-04-27T08:28:10.457Z,11520.00
2019-04-27T08:29:09.469Z,10624.00
2019-04-27T08:30:30.473Z,10040.00
2019-04-27T08:31:10.459Z,10228.00
2019-04-27T08:32:09.735Z,9616.00
2019-04-27T08:33:10.462Z,8748.00
2019-04-27T08:34:09.459Z,8580.00
2019-04-27T08:35:09.595Z,7572.00
2019-04-27T08:36:10.458Z,7372.00
2019-04-27T08:37:09.431Z,7836.00
2019-04-27T08:38:09.433Z,7208.00
2019-04-27T08:39:09.426Z,7388.00
2019-04-27T08:40:09.447Z,8252.00
2019-04-27T08:41:09.422Z,10880.00
2019-04-27T08:42:09.642Z,14240.00
2019-04-27T08:43:10.393Z,14208.00
2019-04-27T08:44:09.842Z,15136.00
2019-04-27T08:45:10.378Z,14304.00
2019-04-27T08:46:09.387Z,13548.00
2019-04-27T08:47:09.696Z,12356.00
2019-04-27T08:48:10.385Z,11944.00
2019-04-27T08:49:10.202Z,12068.00
2019-04-27T08:50:09.384Z,7524.00
2019-04-27T08:51:09.643Z,12976.00
2019-04-27T08:52:10.379Z,7156.00
2019-04-27T08:53:09.862Z,7216.00
2019-04-27T08:54:10.385Z,10312.00
2019-04-27T08:55:09.661Z,9748.00
2019-04-27T08:56:10.376Z,9092.00
2019-04-27T08:57:09.808Z,8388.00
2019-04-27T08:58:10.399Z,7820.00
2019-04-27T08:59:09.620Z,8012.00
2019-04-27T09:00:10.337Z,7864.00
2019-04-27T09:01:10.343Z,8076.00
2019-04-27T09:02:10.327Z,13376.00
2019-04-27T09:03:09.645Z,13888.00
2019-04-27T09:04:11.267Z,13824.00
2019-04-27T09:05:10.301Z,13472.00
2019-04-27T09:06:09.302Z,10828.00
2019-04-27T09:07:09.302Z,12372.00
2019-04-27T09:08:09.277Z,12464.00
2019-04-27T09:09:09.579Z,12076.00
2019-04-27T09:10:10.313Z,12960.00
2019-04-27T09:11:09.273Z,12324.00
2019-04-27T09:12:09.574Z,12388.00
2019-04-27T09:13:10.244Z,12084.00
2019-04-27T09:14:09.230Z,11992.00
2019-04-27T09:15:10.001Z,9516.00
2019-04-27T09:16:11.141Z,7548.00
2019-04-27T09:17:09.685Z,7240.00
2019-04-27T09:18:10.201Z,7356.00
2019-04-27T09:19:09.185Z,12060.00
2019-04-27T09:20:09.535Z,8864.00
2019-04-27T09:21:10.604Z,12460.00
2019-04-27T09:22:15.684Z,9696.00
2019-04-27T09:23:11.160Z,11736.00
2019-04-27T09:24:09.494Z,11872.00
2019-04-27T09:25:10.145Z,11336.00
2019-04-27T09:26:09.565Z,11564.00
2019-04-27T09:27:10.120Z,13152.00
2019-04-27T09:28:10.132Z,13760.00
2019-04-27T09:29:09.120Z,14272.00
2019-04-27T09:30:10.268Z,11940.00
2019-04-27T09:31:09.333Z,11756.00
2019-04-27T09:32:10.093Z,12024.00
2019-04-27T09:33:09.090Z,11444.00
2019-04-27T09:34:10.560Z,11192.00
2019-04-27T09:35:09.071Z,10208.00
2019-04-27T09:36:09.125Z,9780.00
2019-04-27T09:37:09.077Z,9524.00
2019-04-27T09:38:09.045Z,9980.00
2019-04-27T09:39:09.048Z,10484.00
2019-04-27T09:40:09.035Z,10792.00
2019-04-27T09:41:09.022Z,10496.00
2019-04-27T09:42:09.120Z,9736.00
2019-04-27T09:43:09.971Z,9460.00
2019-04-27T09:44:09.119Z,10320.00
2019-04-27T09:45:09.034Z,10340.00
2019-04-27T09:46:08.995Z,9960.00
2019-04-27T09:47:09.007Z,9672.00
2019-04-27T09:48:09.007Z,9208.00
2019-04-27T09:49:10.749Z,8848.00
2019-04-27T09:50:09.019Z,8672.00
2019-04-27T09:51:08.972Z,8984.00
2019-04-27T09:52:08.961Z,8920.00
2019-04-27T09:53:08.937Z,8192.00
2019-04-27T09:54:08.976Z,7108.00
2019-04-27T09:55:08.963Z,6672.00
2019-04-27T09:56:08.964Z,6476.00
2019-04-27T09:57:08.948Z,6196.00
2019-04-27T09:58:08.931Z,6192.00
2019-04-27T09:59:08.908Z,5292.00
2019-04-27T10:00:08.912Z,4648.00
2019-04-27T10:01:09.081Z,4444.00
2019-04-27T10:02:09.005Z,4488.00
2019-04-27T10:03:08.909Z,4704.00
2019-04-27T10:04:08.980Z,5340.00
2019-04-27T10:05:09.118Z,5284.00
2019-04-27T10:06:08.926Z,4920.00
2019-04-27T10:07:08.991Z,4760.00
2019-04-27T10:08:08.958Z,4644.00
2019-04-27T10:09:08.899Z,4172.00
2019-04-27T10:10:08.866Z,3784.00
2019-04-27T10:11:08.856Z,3716.00
2019-04-27T10:12:08.865Z,3636.00
2019-04-27T10:13:08.975Z,3560.00
2019-04-27T10:14:09.025Z,3448.00
2019-04-27T10:15:08.805Z,3676.00
2019-04-27T10:16:08.802Z,3584.00
2019-04-27T10:17:08.840Z,3264.00
2019-04-27T10:18:08.775Z,2908.00
2019-04-27T10:19:08.762Z,2860.00
2019-04-27T10:20:08.769Z,3140.00
2019-04-27T10:21:08.759Z,3320.00
2019-04-27T10:22:08.795Z,3568.00
2019-04-27T10:23:08.746Z,4364.00
2019-04-27T10:24:08.758Z,4640.00
2019-04-27T10:25:08.734Z,4688.00
2019-04-27T10:26:08.806Z,4548.00
2019-04-27T10:27:08.772Z,4460.00
2019-04-27T10:28:08.877Z,4120.00
2019-04-27T10:29:08.736Z,3816.00
2019-04-27T10:30:08.709Z,3708.00
2019-04-27T10:31:08.712Z,3876.00
2019-04-27T10:32:08.719Z,3760.00
2019-04-27T10:33:08.710Z,3524.00
2019-04-27T10:34:08.824Z,3192.00
2019-04-27T10:35:08.684Z,2904.00
2019-04-27T10:36:08.722Z,2716.00
2019-04-27T10:37:09.489Z,2700.00
2019-04-27T10:38:08.704Z,2792.00
2019-04-27T10:39:08.661Z,2880.00
2019-04-27T10:40:08.632Z,2980.00
2019-04-27T10:41:08.661Z,3012.00
2019-04-27T10:42:08.693Z,2912.00
2019-04-27T10:43:08.786Z,2796.00
2019-04-27T10:44:08.695Z,2668.00
2019-04-27T10:45:08.627Z,2472.00
2019-04-27T10:46:08.621Z,2272.00
2019-04-27T10:47:08.598Z,1988.00
2019-04-27T10:48:08.608Z,1628.00
2019-04-27T10:49:08.565Z,1328.00
2019-04-27T10:50:08.670Z,1080.00
2019-04-27T10:51:08.586Z,900.00
2019-04-27T10:52:08.603Z,856.00
2019-04-27T10:53:08.552Z,852.00
2019-04-27T10:54:08.580Z,868.00
2019-04-27T10:55:08.553Z,908.00
2019-04-27T10:56:08.536Z,944.00
2019-04-27T10:57:08.509Z,992.00
2019-04-27T10:58:08.524Z,1160.00
2019-04-27T10:59:09.760Z,1440.00
2019-04-27T11:00:09.482Z,1760.00
2019-04-27T11:01:08.506Z,2108.00
2019-04-27T11:02:08.552Z,2220.00
2019-04-27T11:03:08.502Z,2068.00
2019-04-27T11:04:08.472Z,2348.00
2019-04-27T11:05:08.489Z,2812.00
2019-04-27T11:06:08.470Z,3360.00
2019-04-27T11:07:08.463Z,3344.00
2019-04-27T11:08:08.523Z,2936.00
2019-04-27T11:09:08.450Z,2732.00
2019-04-27T11:10:08.430Z,2680.00
2019-04-27T11:11:08.432Z,2760.00
2019-04-27T11:12:08.415Z,3020.00
2019-04-27T11:13:08.458Z,3432.00
2019-04-27T11:14:08.444Z,4068.00
2019-04-27T11:15:08.442Z,5184.00
2019-04-27T11:16:08.383Z,5988.00
2019-04-27T11:17:08.378Z,6696.00
2019-04-27T11:18:08.372Z,6808.00
2019-04-27T11:19:08.381Z,6416.00
2019-04-27T11:20:08.469Z,5856.00
2019-04-27T11:21:08.378Z,5228.00
2019-04-27T11:22:08.382Z,4916.00
2019-04-27T11:23:12.279Z,4840.00
2019-04-27T11:24:09.370Z,5164.00
2019-04-27T11:25:08.329Z,5840.00
2019-04-27T11:26:08.334Z,6020.00
2019-04-27T11:27:08.339Z,6496.00
2019-04-27T11:28:08.311Z,6544.00
2019-04-27T11:29:08.393Z,5800.00
2019-04-27T11:30:08.458Z,6080.00
2019-04-27T11:31:08.301Z,6708.00
2019-04-27T11:32:08.280Z,6752.00
2019-04-27T11:33:08.288Z,6404.00
2019-04-27T11:34:08.288Z,6252.00
2019-04-27T11:35:08.283Z,5856.00
2019-04-27T11:36:08.329Z,5720.00
2019-04-27T11:37:08.267Z,5776.00
2019-04-27T11:38:08.232Z,5748.00
2019-04-27T11:39:08.245Z,5988.00
2019-04-27T11:40:08.252Z,6224.00
2019-04-27T11:41:08.257Z,6348.00
2019-04-27T11:42:08.236Z,6212.00
2019-04-27T11:43:08.218Z,6104.00
2019-04-27T11:44:08.214Z,6212.00
2019-04-27T11:45:08.207Z,6384.00
2019-04-27T11:46:08.201Z,5924.00
2019-04-27T11:47:09.198Z,5792.00
2019-04-27T11:48:08.179Z,5880.00
2019-04-27T11:49:08.187Z,5932.00
2019-04-27T11:50:08.418Z,5516.00
2019-04-27T11:51:11.025Z,5488.00
2019-04-27T11:52:09.153Z,5636.00
2019-04-27T11:53:19.688Z,5352.00
2019-04-27T11:54:10.138Z,5136.00
2019-04-27T11:55:08.124Z,4916.00
2019-04-27T11:56:08.164Z,5232.00
2019-04-27T11:57:08.115Z,6404.00
2019-04-27T11:58:08.098Z,7704.00
2019-04-27T11:59:08.101Z,8752.00
2019-04-27T12:00:08.113Z,9256.00
2019-04-27T12:01:08.520Z,9444.00
2019-04-27T12:02:09.093Z,8732.00
2019-04-27T12:03:08.066Z,7544.00
2019-04-27T12:04:08.069Z,7300.00
2019-04-27T12:05:08.098Z,7132.00
2019-04-27T12:06:08.049Z,7108.00
2019-04-27T12:07:08.031Z,7108.00
2019-04-27T12:08:08.026Z,8112.00
2019-04-27T12:09:08.061Z,8740.00
2019-04-27T12:10:08.023Z,8576.00
2019-04-27T12:11:08.030Z,7672.00
2019-04-27T12:12:13.572Z,6276.00
2019-04-27T12:13:10.003Z,5100.00
2019-04-27T12:14:07.994Z,4820.00
2019-04-27T12:15:07.988Z,4956.00
2019-04-27T12:16:07.987Z,5368.00
2019-04-27T12:17:07.963Z,5748.00
2019-04-27T12:18:09.073Z,6244.00
2019-04-27T12:19:08.989Z,6716.00
2019-04-27T12:20:07.976Z,7028.00
2019-04-27T12:21:07.990Z,7276.00
2019-04-27T12:22:07.967Z,7516.00
2019-04-27T12:23:07.952Z,7708.00